sensor_id;sensor_type;location;lat;lon;timestamp;P1;durP1;ratioP1;P2;durP2;ratioP2
60502;SDS011;51448;51.660;5.824;2024-03-02T00:00:49;3.58;;;1.17;;
60502;SDS011;51448;51.660;5.824;2024-03-02T00:03:18;3.60;;;1.30;;
60502;SDS011;51448;51.660;5.824;2024-03-02T00:05:50;2.47;;;1.05;;
60502;SDS011;51448;51.660;5.824;2024-03-02T00:08:24;2.60;;;1.10;;
60502;SDS011;51448;51.660;5.824;2024-03-02T00:10:59;3.28;;;1.33;;
60502;SDS011;51448;51.660;5.824;2024-03-02T00:13:30;2.55;;;1.20;;
60502;SDS011;51448;51.660;5.824;2024-03-02T00:15:59;3.53;;;1.17;;
60502;SDS011;51448;51.660;5.824;2024-03-02T00:18:30;6.40;;;1.38;;
60502;SDS011;51448;51.660;5.824;2024-03-02T00:21:01;3.75;;;1.23;;
60502;SDS011;51448;51.660;5.824;2024-03-02T00:23:30;2.70;;;1.15;;
60502;SDS011;51448;51.660;5.824;2024-03-02T00:25:59;2.08;;;0.88;;
60502;SDS011;51448;51.660;5.824;2024-03-02T00:28:29;3.00;;;1.30;;
60502;SDS011;51448;51.660;5.824;2024-03-02T00:31:05;4.32;;;1.27;;
60502;SDS011;51448;51.660;5.824;2024-03-02T00:33:36;2.85;;;1.10;;
60502;SDS011;51448;51.660;5.824;2024-03-02T00:36:08;2.60;;;1.10;;
60502;SDS011;51448;51.660;5.824;2024-03-02T00:38:42;2.20;;;1.10;;
60502;SDS011;51448;51.660;5.824;2024-03-02T00:41:19;2.75;;;1.23;;
60502;SDS011;51448;51.660;5.824;2024-03-02T00:44:00;3.17;;;1.20;;
60502;SDS011;51448;51.660;5.824;2024-03-02T00:46:34;3.15;;;1.45;;
60502;SDS011;51448;51.660;5.824;2024-03-02T00:49:16;2.90;;;1.70;;
60502;SDS011;51448;51.660;5.824;2024-03-02T00:51:47;2.80;;;1.27;;
60502;SDS011;51448;51.660;5.824;2024-03-02T00:54:20;3.53;;;1.10;;
60502;SDS011;51448;51.660;5.824;2024-03-02T00:56:52;2.15;;;1.15;;
60502;SDS011;51448;51.660;5.824;2024-03-02T00:59:22;3.27;;;1.20;;
60502;SDS011;51448;51.660;5.824;2024-03-02T01:01:51;4.82;;;1.00;;
60502;SDS011;51448;51.660;5.824;2024-03-02T01:04:19;1.95;;;0.57;;
60502;SDS011;51448;51.660;5.824;2024-03-02T01:06:47;1.02;;;0.57;;
60502;SDS011;51448;51.660;5.824;2024-03-02T01:09:15;1.10;;;0.57;;
60502;SDS011;51448;51.660;5.824;2024-03-02T01:11:45;2.88;;;1.00;;
60502;SDS011;51448;51.660;5.824;2024-03-02T01:14:12;0.90;;;0.40;;
60502;SDS011;51448;51.660;5.824;2024-03-02T01:16:40;0.88;;;0.40;;
60502;SDS011;51448;51.660;5.824;2024-03-02T01:19:08;2.05;;;0.40;;
60502;SDS011;51448;51.660;5.824;2024-03-02T01:21:37;0.45;;;0.30;;
60502;SDS011;51448;51.660;5.824;2024-03-02T01:24:04;1.30;;;0.93;;
60502;SDS011;51448;51.660;5.824;2024-03-02T01:26:32;0.63;;;0.40;;
60502;SDS011;51448;51.660;5.824;2024-03-02T01:28:59;0.40;;;0.40;;
60502;SDS011;51448;51.660;5.824;2024-03-02T01:31:27;2.50;;;0.40;;
60502;SDS011;51448;51.660;5.824;2024-03-02T01:33:55;0.52;;;0.30;;
60502;SDS011;51448;51.660;5.824;2024-03-02T01:36:23;0.63;;;0.32;;
60502;SDS011;51448;51.660;5.824;2024-03-02T01:38:51;0.90;;;0.47;;
60502;SDS011;51448;51.660;5.824;2024-03-02T01:41:18;0.82;;;0.50;;
60502;SDS011;51448;51.660;5.824;2024-03-02T01:43:46;0.40;;;0.30;;
60502;SDS011;51448;51.660;5.824;2024-03-02T01:46:13;0.90;;;0.30;;
60502;SDS011;51448;51.660;5.824;2024-03-02T01:48:41;0.60;;;0.40;;
60502;SDS011;51448;51.660;5.824;2024-03-02T01:51:08;1.85;;;0.40;;
60502;SDS011;51448;51.660;5.824;2024-03-02T01:53:37;1.00;;;0.50;;
60502;SDS011;51448;51.660;5.824;2024-03-02T01:56:05;1.55;;;0.50;;
60502;SDS011;51448;51.660;5.824;2024-03-02T01:58:32;0.20;;;0.20;;
60502;SDS011;51448;51.660;5.824;2024-03-02T02:01:00;0.75;;;0.40;;
60502;SDS011;51448;51.660;5.824;2024-03-02T02:03:28;0.65;;;0.30;;
60502;SDS011;51448;51.660;5.824;2024-03-02T02:05:55;0.95;;;0.50;;
60502;SDS011;51448;51.660;5.824;2024-03-02T02:08:23;0.70;;;0.30;;
60502;SDS011;51448;51.660;5.824;2024-03-02T02:10:51;0.40;;;0.30;;
60502;SDS011;51448;51.660;5.824;2024-03-02T02:13:18;0.45;;;0.35;;
60502;SDS011;51448;51.660;5.824;2024-03-02T02:15:46;1.00;;;0.40;;
60502;SDS011;51448;51.660;5.824;2024-03-02T02:18:13;0.47;;;0.30;;
60502;SDS011;51448;51.660;5.824;2024-03-02T02:20:41;1.15;;;0.50;;
60502;SDS011;51448;51.660;5.824;2024-03-02T02:23:09;0.57;;;0.50;;
60502;SDS011;51448;51.660;5.824;2024-03-02T02:25:37;0.77;;;0.43;;
60502;SDS011;51448;51.660;5.824;2024-03-02T02:28:05;0.40;;;0.30;;
60502;SDS011;51448;51.660;5.824;2024-03-02T02:30:32;1.08;;;0.50;;
60502;SDS011;51448;51.660;5.824;2024-03-02T02:33:01;0.43;;;0.30;;
60502;SDS011;51448;51.660;5.824;2024-03-02T02:35:29;1.25;;;0.40;;
60502;SDS011;51448;51.660;5.824;2024-03-02T02:37:57;1.17;;;0.43;;
60502;SDS011;51448;51.660;5.824;2024-03-02T02:40:28;2.42;;;0.55;;
60502;SDS011;51448;51.660;5.824;2024-03-02T02:42:58;0.68;;;0.40;;
60502;SDS011;51448;51.660;5.824;2024-03-02T02:45:26;3.22;;;0.30;;
60502;SDS011;51448;51.660;5.824;2024-03-02T02:47:54;0.43;;;0.40;;
60502;SDS011;51448;51.660;5.824;2024-03-02T02:50:21;0.63;;;0.52;;
60502;SDS011;51448;51.660;5.824;2024-03-02T02:52:49;0.20;;;0.20;;
60502;SDS011;51448;51.660;5.824;2024-03-02T02:55:17;0.32;;;0.30;;
60502;SDS011;51448;51.660;5.824;2024-03-02T02:57:45;1.38;;;0.45;;
60502;SDS011;51448;51.660;5.824;2024-03-02T03:00:14;1.65;;;0.40;;
60502;SDS011;51448;51.660;5.824;2024-03-02T03:02:46;0.85;;;0.57;;
60502;SDS011;51448;51.660;5.824;2024-03-02T03:05:18;2.10;;;0.40;;
60502;SDS011;51448;51.660;5.824;2024-03-02T03:07:46;0.60;;;0.40;;
60502;SDS011;51448;51.660;5.824;2024-03-02T03:10:17;0.82;;;0.40;;
60502;SDS011;51448;51.660;5.824;2024-03-02T03:12:45;1.17;;;0.55;;
60502;SDS011;51448;51.660;5.824;2024-03-02T03:15:14;0.75;;;0.50;;
60502;SDS011;51448;51.660;5.824;2024-03-02T03:17:43;2.50;;;0.70;;
60502;SDS011;51448;51.660;5.824;2024-03-02T03:20:13;1.55;;;0.70;;
60502;SDS011;51448;51.660;5.824;2024-03-02T03:22:42;1.88;;;0.63;;
60502;SDS011;51448;51.660;5.824;2024-03-02T03:25:10;0.85;;;0.50;;
60502;SDS011;51448;51.660;5.824;2024-03-02T03:27:37;1.77;;;0.73;;
60502;SDS011;51448;51.660;5.824;2024-03-02T03:30:05;1.08;;;0.50;;
60502;SDS011;51448;51.660;5.824;2024-03-02T03:32:34;0.82;;;0.40;;
60502;SDS011;51448;51.660;5.824;2024-03-02T03:35:02;0.50;;;0.40;;
60502;SDS011;51448;51.660;5.824;2024-03-02T03:37:31;3.78;;;0.93;;
60502;SDS011;51448;51.660;5.824;2024-03-02T03:40:02;2.72;;;0.68;;
60502;SDS011;51448;51.660;5.824;2024-03-02T03:42:34;0.70;;;0.68;;
60502;SDS011;51448;51.660;5.824;2024-03-02T03:45:02;1.48;;;0.52;;
60502;SDS011;51448;51.660;5.824;2024-03-02T03:47:31;0.82;;;0.60;;
60502;SDS011;51448;51.660;5.824;2024-03-02T03:49:59;0.63;;;0.40;;
60502;SDS011;51448;51.660;5.824;2024-03-02T03:52:26;1.08;;;0.40;;
60502;SDS011;51448;51.660;5.824;2024-03-02T03:54:54;0.90;;;0.77;;
60502;SDS011;51448;51.660;5.824;2024-03-02T03:57:21;0.88;;;0.68;;
60502;SDS011;51448;51.660;5.824;2024-03-02T03:59:49;0.95;;;0.40;;
60502;SDS011;51448;51.660;5.824;2024-03-02T04:02:17;0.63;;;0.50;;
60502;SDS011;51448;51.660;5.824;2024-03-02T04:04:44;0.63;;;0.45;;
60502;SDS011;51448;51.660;5.824;2024-03-02T04:07:12;2.03;;;0.70;;
60502;SDS011;51448;51.660;5.824;2024-03-02T04:09:39;0.98;;;0.60;;
60502;SDS011;51448;51.660;5.824;2024-03-02T04:12:07;1.52;;;0.50;;
60502;SDS011;51448;51.660;5.824;2024-03-02T04:14:35;1.35;;;0.55;;
60502;SDS011;51448;51.660;5.824;2024-03-02T04:17:02;0.95;;;0.57;;
60502;SDS011;51448;51.660;5.824;2024-03-02T04:19:30;2.25;;;0.50;;
60502;SDS011;51448;51.660;5.824;2024-03-02T04:21:57;2.80;;;0.50;;
60502;SDS011;51448;51.660;5.824;2024-03-02T04:24:31;1.33;;;0.50;;
60502;SDS011;51448;51.660;5.824;2024-03-02T04:26:59;1.55;;;0.57;;
60502;SDS011;51448;51.660;5.824;2024-03-02T04:29:26;0.85;;;0.50;;
60502;SDS011;51448;51.660;5.824;2024-03-02T04:31:54;1.30;;;0.60;;
60502;SDS011;51448;51.660;5.824;2024-03-02T04:34:22;1.15;;;0.40;;
60502;SDS011;51448;51.660;5.824;2024-03-02T04:36:49;2.35;;;0.50;;
60502;SDS011;51448;51.660;5.824;2024-03-02T04:39:17;0.40;;;0.40;;
60502;SDS011;51448;51.660;5.824;2024-03-02T04:41:45;0.95;;;0.45;;
60502;SDS011;51448;51.660;5.824;2024-03-02T04:44:12;1.60;;;0.50;;
60502;SDS011;51448;51.660;5.824;2024-03-02T04:46:40;2.05;;;0.70;;
60502;SDS011;51448;51.660;5.824;2024-03-02T04:49:07;1.80;;;0.50;;
60502;SDS011;51448;51.660;5.824;2024-03-02T04:51:35;1.02;;;0.68;;
60502;SDS011;51448;51.660;5.824;2024-03-02T04:54:02;2.10;;;0.50;;
60502;SDS011;51448;51.660;5.824;2024-03-02T04:56:30;1.55;;;0.45;;
60502;SDS011;51448;51.660;5.824;2024-03-02T04:59:17;1.15;;;0.47;;
60502;SDS011;51448;51.660;5.824;2024-03-02T05:01:45;0.80;;;0.45;;
60502;SDS011;51448;51.660;5.824;2024-03-02T05:04:14;2.70;;;0.65;;
60502;SDS011;51448;51.660;5.824;2024-03-02T05:06:42;1.35;;;0.45;;
60502;SDS011;51448;51.660;5.824;2024-03-02T05:09:10;1.05;;;0.50;;
60502;SDS011;51448;51.660;5.824;2024-03-02T05:11:37;1.85;;;0.50;;
60502;SDS011;51448;51.660;5.824;2024-03-02T05:14:05;1.00;;;0.57;;
60502;SDS011;51448;51.660;5.824;2024-03-02T05:16:34;0.90;;;0.40;;
60502;SDS011;51448;51.660;5.824;2024-03-02T05:19:08;0.47;;;0.32;;
60502;SDS011;51448;51.660;5.824;2024-03-02T05:21:36;0.40;;;0.32;;
60502;SDS011;51448;51.660;5.824;2024-03-02T05:24:03;0.57;;;0.40;;
60502;SDS011;51448;51.660;5.824;2024-03-02T05:26:31;1.00;;;0.40;;
60502;SDS011;51448;51.660;5.824;2024-03-02T05:28:58;1.15;;;0.45;;
60502;SDS011;51448;51.660;5.824;2024-03-02T05:31:26;1.75;;;0.60;;
60502;SDS011;51448;51.660;5.824;2024-03-02T05:33:53;2.05;;;0.57;;
60502;SDS011;51448;51.660;5.824;2024-03-02T05:36:24;1.27;;;0.60;;
60502;SDS011;51448;51.660;5.824;2024-03-02T05:38:52;1.10;;;0.40;;
60502;SDS011;51448;51.660;5.824;2024-03-02T05:41:20;2.80;;;0.60;;
60502;SDS011;51448;51.660;5.824;2024-03-02T05:43:47;1.00;;;0.40;;
60502;SDS011;51448;51.660;5.824;2024-03-02T05:46:15;3.08;;;0.60;;
60502;SDS011;51448;51.660;5.824;2024-03-02T05:48:42;1.60;;;0.40;;
60502;SDS011;51448;51.660;5.824;2024-03-02T05:51:10;0.73;;;0.40;;
60502;SDS011;51448;51.660;5.824;2024-03-02T05:53:38;1.58;;;0.65;;
60502;SDS011;51448;51.660;5.824;2024-03-02T05:56:06;4.20;;;1.42;;
60502;SDS011;51448;51.660;5.824;2024-03-02T05:58:34;1.10;;;0.40;;
60502;SDS011;51448;51.660;5.824;2024-03-02T06:01:13;1.75;;;0.50;;
60502;SDS011;51448;51.660;5.824;2024-03-02T06:03:41;0.98;;;0.63;;
60502;SDS011;51448;51.660;5.824;2024-03-02T06:06:09;2.00;;;0.50;;
60502;SDS011;51448;51.660;5.824;2024-03-02T06:08:36;1.08;;;0.40;;
60502;SDS011;51448;51.660;5.824;2024-03-02T06:11:04;0.85;;;0.45;;
60502;SDS011;51448;51.660;5.824;2024-03-02T06:13:31;1.85;;;0.57;;
60502;SDS011;51448;51.660;5.824;2024-03-02T06:15:59;1.65;;;0.50;;
60502;SDS011;51448;51.660;5.824;2024-03-02T06:18:27;1.77;;;0.50;;
60502;SDS011;51448;51.660;5.824;2024-03-02T06:20:55;1.42;;;0.50;;
60502;SDS011;51448;51.660;5.824;2024-03-02T06:23:22;1.02;;;0.60;;
60502;SDS011;51448;51.660;5.824;2024-03-02T06:25:50;1.30;;;0.70;;
60502;SDS011;51448;51.660;5.824;2024-03-02T06:28:17;1.13;;;0.60;;
60502;SDS011;51448;51.660;5.824;2024-03-02T06:30:45;2.20;;;0.70;;
60502;SDS011;51448;51.660;5.824;2024-03-02T06:33:12;1.60;;;0.55;;
60502;SDS011;51448;51.660;5.824;2024-03-02T06:35:40;1.40;;;0.50;;
60502;SDS011;51448;51.660;5.824;2024-03-02T06:38:08;2.05;;;0.95;;
60502;SDS011;51448;51.660;5.824;2024-03-02T06:40:35;1.98;;;0.50;;
60502;SDS011;51448;51.660;5.824;2024-03-02T06:43:05;3.58;;;0.90;;
60502;SDS011;51448;51.660;5.824;2024-03-02T06:45:33;1.42;;;0.75;;
60502;SDS011;51448;51.660;5.824;2024-03-02T06:48:01;2.13;;;1.08;;
60502;SDS011;51448;51.660;5.824;2024-03-02T06:50:29;1.83;;;0.82;;
60502;SDS011;51448;51.660;5.824;2024-03-02T06:52:57;0.63;;;0.50;;
60502;SDS011;51448;51.660;5.824;2024-03-02T06:55:25;1.77;;;0.70;;
60502;SDS011;51448;51.660;5.824;2024-03-02T06:57:52;1.58;;;0.52;;
60502;SDS011;51448;51.660;5.824;2024-03-02T07:00:20;1.60;;;0.80;;
60502;SDS011;51448;51.660;5.824;2024-03-02T07:02:48;2.45;;;0.80;;
60502;SDS011;51448;51.660;5.824;2024-03-02T07:05:16;1.58;;;0.65;;
60502;SDS011;51448;51.660;5.824;2024-03-02T07:07:43;1.35;;;0.60;;
60502;SDS011;51448;51.660;5.824;2024-03-02T07:10:11;1.98;;;0.95;;
60502;SDS011;51448;51.660;5.824;2024-03-02T07:12:38;3.45;;;0.90;;
60502;SDS011;51448;51.660;5.824;2024-03-02T07:15:06;2.42;;;0.60;;
60502;SDS011;51448;51.660;5.824;2024-03-02T07:17:34;3.83;;;0.90;;
60502;SDS011;51448;51.660;5.824;2024-03-02T07:20:04;2.15;;;0.57;;
60502;SDS011;51448;51.660;5.824;2024-03-02T07:22:33;2.53;;;0.90;;
60502;SDS011;51448;51.660;5.824;2024-03-02T07:25:01;1.85;;;0.82;;
60502;SDS011;51448;51.660;5.824;2024-03-02T07:27:30;1.77;;;0.80;;
60502;SDS011;51448;51.660;5.824;2024-03-02T07:29:58;2.55;;;1.15;;
60502;SDS011;51448;51.660;5.824;2024-03-02T07:32:26;2.13;;;0.75;;
60502;SDS011;51448;51.660;5.824;2024-03-02T07:34:53;2.08;;;0.50;;
60502;SDS011;51448;51.660;5.824;2024-03-02T07:37:21;2.95;;;1.42;;
60502;SDS011;51448;51.660;5.824;2024-03-02T07:39:50;2.63;;;1.13;;
60502;SDS011;51448;51.660;5.824;2024-03-02T07:42:19;1.95;;;0.68;;
60502;SDS011;51448;51.660;5.824;2024-03-02T07:44:46;1.95;;;0.70;;
60502;SDS011;51448;51.660;5.824;2024-03-02T07:47:14;3.45;;;0.80;;
60502;SDS011;51448;51.660;5.824;2024-03-02T07:49:41;3.95;;;1.27;;
60502;SDS011;51448;51.660;5.824;2024-03-02T07:52:09;2.15;;;0.70;;
60502;SDS011;51448;51.660;5.824;2024-03-02T07:54:36;4.60;;;0.93;;
60502;SDS011;51448;51.660;5.824;2024-03-02T07:57:04;1.40;;;0.70;;
60502;SDS011;51448;51.660;5.824;2024-03-02T07:59:32;3.88;;;0.80;;
60502;SDS011;51448;51.660;5.824;2024-03-02T08:01:59;1.45;;;0.70;;
60502;SDS011;51448;51.660;5.824;2024-03-02T08:04:27;3.60;;;0.70;;
60502;SDS011;51448;51.660;5.824;2024-03-02T08:06:55;4.13;;;1.17;;
60502;SDS011;51448;51.660;5.824;2024-03-02T08:09:23;3.55;;;1.38;;
60502;SDS011;51448;51.660;5.824;2024-03-02T08:11:50;2.72;;;0.82;;
60502;SDS011;51448;51.660;5.824;2024-03-02T08:14:18;2.22;;;0.50;;
60502;SDS011;51448;51.660;5.824;2024-03-02T08:16:46;1.80;;;0.80;;
60502;SDS011;51448;51.660;5.824;2024-03-02T08:19:13;3.15;;;1.65;;
60502;SDS011;51448;51.660;5.824;2024-03-02T08:21:41;3.78;;;1.05;;
60502;SDS011;51448;51.660;5.824;2024-03-02T08:24:11;5.80;;;0.93;;
60502;SDS011;51448;51.660;5.824;2024-03-02T08:26:38;3.60;;;0.90;;
60502;SDS011;51448;51.660;5.824;2024-03-02T08:29:06;6.53;;;1.25;;
60502;SDS011;51448;51.660;5.824;2024-03-02T08:31:33;2.60;;;1.02;;
60502;SDS011;51448;51.660;5.824;2024-03-02T08:34:04;4.88;;;0.90;;
60502;SDS011;51448;51.660;5.824;2024-03-02T08:36:32;4.32;;;1.58;;
60502;SDS011;51448;51.660;5.824;2024-03-02T08:38:59;3.83;;;1.05;;
60502;SDS011;51448;51.660;5.824;2024-03-02T08:41:27;4.25;;;1.40;;
60502;SDS011;51448;51.660;5.824;2024-03-02T08:43:55;5.07;;;1.33;;
60502;SDS011;51448;51.660;5.824;2024-03-02T08:46:22;3.92;;;1.30;;
60502;SDS011;51448;51.660;5.824;2024-03-02T08:48:50;5.78;;;1.45;;
60502;SDS011;51448;51.660;5.824;2024-03-02T08:51:18;3.25;;;1.65;;
60502;SDS011;51448;51.660;5.824;2024-03-02T08:53:45;3.65;;;0.80;;
60502;SDS011;51448;51.660;5.824;2024-03-02T08:56:13;7.45;;;1.30;;
60502;SDS011;51448;51.660;5.824;2024-03-02T08:58:40;3.08;;;1.35;;
60502;SDS011;51448;51.660;5.824;2024-03-02T09:01:08;5.20;;;1.45;;
60502;SDS011;51448;51.660;5.824;2024-03-02T09:03:37;3.58;;;1.30;;
60502;SDS011;51448;51.660;5.824;2024-03-02T09:06:05;3.65;;;1.30;;
60502;SDS011;51448;51.660;5.824;2024-03-02T09:08:32;2.97;;;1.08;;
60502;SDS011;51448;51.660;5.824;2024-03-02T09:11:02;5.15;;;1.35;;
60502;SDS011;51448;51.660;5.824;2024-03-02T09:13:31;4.75;;;1.48;;
60502;SDS011;51448;51.660;5.824;2024-03-02T09:15:59;4.78;;;1.55;;
60502;SDS011;51448;51.660;5.824;2024-03-02T09:18:27;7.15;;;1.83;;
60502;SDS011;51448;51.660;5.824;2024-03-02T09:20:54;3.30;;;1.10;;
60502;SDS011;51448;51.660;5.824;2024-03-02T09:23:22;7.90;;;2.20;;
60502;SDS011;51448;51.660;5.824;2024-03-02T09:25:50;5.45;;;1.13;;
60502;SDS011;51448;51.660;5.824;2024-03-02T09:28:17;2.10;;;0.77;;
60502;SDS011;51448;51.660;5.824;2024-03-02T09:30:45;4.18;;;1.05;;
60502;SDS011;51448;51.660;5.824;2024-03-02T09:33:13;4.40;;;1.10;;
60502;SDS011;51448;51.660;5.824;2024-03-02T09:35:44;1.85;;;0.80;;
60502;SDS011;51448;51.660;5.824;2024-03-02T09:38:11;4.00;;;1.30;;
60502;SDS011;51448;51.660;5.824;2024-03-02T09:40:41;3.22;;;1.08;;
60502;SDS011;51448;51.660;5.824;2024-03-02T09:43:09;4.40;;;1.23;;
60502;SDS011;51448;51.660;5.824;2024-03-02T09:45:37;6.05;;;1.17;;
60502;SDS011;51448;51.660;5.824;2024-03-02T09:48:05;2.83;;;0.82;;
60502;SDS011;51448;51.660;5.824;2024-03-02T09:50:34;5.80;;;1.67;;
60502;SDS011;51448;51.660;5.824;2024-03-02T09:53:01;4.68;;;1.08;;
60502;SDS011;51448;51.660;5.824;2024-03-02T09:55:29;3.65;;;1.02;;
60502;SDS011;51448;51.660;5.824;2024-03-02T09:57:57;4.63;;;1.20;;
60502;SDS011;51448;51.660;5.824;2024-03-02T10:00:24;3.60;;;1.17;;
60502;SDS011;51448;51.660;5.824;2024-03-02T10:02:52;8.25;;;1.90;;
60502;SDS011;51448;51.660;5.824;2024-03-02T10:05:23;6.72;;;1.60;;
60502;SDS011;51448;51.660;5.824;2024-03-02T10:08:00;5.63;;;1.40;;
60502;SDS011;51448;51.660;5.824;2024-03-02T10:10:36;4.82;;;1.10;;
60502;SDS011;51448;51.660;5.824;2024-03-02T10:13:10;3.10;;;0.82;;
60502;SDS011;51448;51.660;5.824;2024-03-02T10:15:39;4.30;;;1.27;;
60502;SDS011;51448;51.660;5.824;2024-03-02T10:18:12;3.72;;;0.90;;
60502;SDS011;51448;51.660;5.824;2024-03-02T10:20:40;4.63;;;0.80;;
60502;SDS011;51448;51.660;5.824;2024-03-02T10:23:15;1.80;;;0.80;;
60502;SDS011;51448;51.660;5.824;2024-03-02T10:25:44;3.85;;;0.82;;
60502;SDS011;51448;51.660;5.824;2024-03-02T10:28:23;1.65;;;0.55;;
60502;SDS011;51448;51.660;5.824;2024-03-02T10:30:51;3.58;;;0.98;;
60502;SDS011;51448;51.660;5.824;2024-03-02T10:33:20;6.13;;;1.83;;
60502;SDS011;51448;51.660;5.824;2024-03-02T10:35:51;3.10;;;0.82;;
60502;SDS011;51448;51.660;5.824;2024-03-02T10:38:19;2.88;;;0.85;;
60502;SDS011;51448;51.660;5.824;2024-03-02T10:40:48;4.15;;;0.90;;
60502;SDS011;51448;51.660;5.824;2024-03-02T10:43:16;4.13;;;1.35;;
60502;SDS011;51448;51.660;5.824;2024-03-02T10:45:47;2.92;;;0.88;;
60502;SDS011;51448;51.660;5.824;2024-03-02T10:48:17;4.10;;;0.98;;
60502;SDS011;51448;51.660;5.824;2024-03-02T10:50:46;6.35;;;1.25;;
60502;SDS011;51448;51.660;5.824;2024-03-02T10:53:13;4.03;;;0.80;;
60502;SDS011;51448;51.660;5.824;2024-03-02T10:55:41;4.78;;;1.55;;
60502;SDS011;51448;51.660;5.824;2024-03-02T10:58:09;2.63;;;1.27;;
60502;SDS011;51448;51.660;5.824;2024-03-02T11:00:39;2.97;;;1.08;;
60502;SDS011;51448;51.660;5.824;2024-03-02T11:03:11;4.03;;;0.70;;
60502;SDS011;51448;51.660;5.824;2024-03-02T11:05:42;2.95;;;1.02;;
60502;SDS011;51448;51.660;5.824;2024-03-02T11:08:12;3.50;;;0.70;;
60502;SDS011;51448;51.660;5.824;2024-03-02T11:10:58;3.38;;;0.80;;
60502;SDS011;51448;51.660;5.824;2024-03-02T11:13:34;2.03;;;0.80;;
60502;SDS011;51448;51.660;5.824;2024-03-02T11:16:09;3.00;;;0.70;;
60502;SDS011;51448;51.660;5.824;2024-03-02T11:18:49;4.13;;;1.00;;
60502;SDS011;51448;51.660;5.824;2024-03-02T11:21:27;1.83;;;0.82;;
60502;SDS011;51448;51.660;5.824;2024-03-02T11:23:55;4.10;;;1.15;;
60502;SDS011;51448;51.660;5.824;2024-03-02T11:26:23;3.53;;;1.40;;
60502;SDS011;51448;51.660;5.824;2024-03-02T11:28:51;1.98;;;0.70;;
60502;SDS011;51448;51.660;5.824;2024-03-02T11:31:19;4.20;;;1.35;;
60502;SDS011;51448;51.660;5.824;2024-03-02T11:33:46;3.35;;;0.85;;
60502;SDS011;51448;51.660;5.824;2024-03-02T11:36:14;2.75;;;0.73;;
60502;SDS011;51448;51.660;5.824;2024-03-02T11:38:43;2.65;;;0.70;;
60502;SDS011;51448;51.660;5.824;2024-03-02T11:41:13;4.43;;;0.85;;
60502;SDS011;51448;51.660;5.824;2024-03-02T11:43:41;4.70;;;1.10;;
60502;SDS011;51448;51.660;5.824;2024-03-02T11:46:11;3.35;;;1.02;;
60502;SDS011;51448;51.660;5.824;2024-03-02T11:48:40;3.75;;;0.85;;
60502;SDS011;51448;51.660;5.824;2024-03-02T11:51:08;8.30;;;1.65;;
60502;SDS011;51448;51.660;5.824;2024-03-02T11:53:36;3.00;;;0.80;;
60502;SDS011;51448;51.660;5.824;2024-03-02T11:56:08;2.50;;;0.85;;
60502;SDS011;51448;51.660;5.824;2024-03-02T11:58:39;2.10;;;0.70;;
60502;SDS011;51448;51.660;5.824;2024-03-02T12:01:08;3.97;;;1.05;;
60502;SDS011;51448;51.660;5.824;2024-03-02T12:03:38;9.98;;;1.17;;
60502;SDS011;51448;51.660;5.824;2024-03-02T12:06:05;2.47;;;0.75;;
60502;SDS011;51448;51.660;5.824;2024-03-02T12:08:34;4.55;;;1.30;;
60502;SDS011;51448;51.660;5.824;2024-03-02T12:11:03;4.57;;;1.20;;
60502;SDS011;51448;51.660;5.824;2024-03-02T12:13:31;3.95;;;1.10;;
60502;SDS011;51448;51.660;5.824;2024-03-02T12:16:00;4.50;;;1.63;;
60502;SDS011;51448;51.660;5.824;2024-03-02T12:18:27;3.58;;;1.10;;
60502;SDS011;51448;51.660;5.824;2024-03-02T12:20:55;3.78;;;1.00;;
60502;SDS011;51448;51.660;5.824;2024-03-02T12:23:26;5.30;;;1.02;;
60502;SDS011;51448;51.660;5.824;2024-03-02T12:25:56;3.67;;;1.23;;
60502;SDS011;51448;51.660;5.824;2024-03-02T12:28:23;2.15;;;0.80;;
60502;SDS011;51448;51.660;5.824;2024-03-02T12:30:51;3.47;;;1.02;;
60502;SDS011;51448;51.660;5.824;2024-03-02T12:33:19;6.32;;;1.30;;
60502;SDS011;51448;51.660;5.824;2024-03-02T12:35:48;4.22;;;1.85;;
60502;SDS011;51448;51.660;5.824;2024-03-02T12:38:16;4.22;;;1.13;;
60502;SDS011;51448;51.660;5.824;2024-03-02T12:40:44;2.67;;;0.93;;
60502;SDS011;51448;51.660;5.824;2024-03-02T12:43:11;4.05;;;1.27;;
60502;SDS011;51448;51.660;5.824;2024-03-02T12:45:39;1.80;;;0.80;;
60502;SDS011;51448;51.660;5.824;2024-03-02T12:48:07;3.47;;;1.15;;
60502;SDS011;51448;51.660;5.824;2024-03-02T12:50:34;3.30;;;2.00;;
60502;SDS011;51448;51.660;5.824;2024-03-02T12:53:02;4.68;;;1.45;;
60502;SDS011;51448;51.660;5.824;2024-03-02T12:55:30;3.38;;;0.85;;
60502;SDS011;51448;51.660;5.824;2024-03-02T12:57:58;5.45;;;0.80;;
60502;SDS011;51448;51.660;5.824;2024-03-02T13:00:27;4.35;;;1.02;;
60502;SDS011;51448;51.660;5.824;2024-03-02T13:02:56;2.35;;;0.90;;
60502;SDS011;51448;51.660;5.824;2024-03-02T13:05:32;2.40;;;0.77;;
60502;SDS011;51448;51.660;5.824;2024-03-02T13:08:00;4.93;;;1.08;;
60502;SDS011;51448;51.660;5.824;2024-03-02T13:10:30;4.63;;;1.58;;
60502;SDS011;51448;51.660;5.824;2024-03-02T13:12:59;6.45;;;1.77;;
60502;SDS011;51448;51.660;5.824;2024-03-02T13:15:28;6.13;;;1.80;;
60502;SDS011;51448;51.660;5.824;2024-03-02T13:17:58;4.72;;;0.90;;
60502;SDS011;51448;51.660;5.824;2024-03-02T13:20:31;4.95;;;1.60;;
60502;SDS011;51448;51.660;5.824;2024-03-02T13:23:00;5.78;;;1.70;;
60502;SDS011;51448;51.660;5.824;2024-03-02T13:25:28;5.50;;;1.88;;
60502;SDS011;51448;51.660;5.824;2024-03-02T13:27:59;3.05;;;0.90;;
60502;SDS011;51448;51.660;5.824;2024-03-02T13:30:27;4.25;;;0.93;;
60502;SDS011;51448;51.660;5.824;2024-03-02T13:32:55;2.97;;;0.73;;
60502;SDS011;51448;51.660;5.824;2024-03-02T13:35:23;3.92;;;0.90;;
60502;SDS011;51448;51.660;5.824;2024-03-02T13:37:50;2.85;;;0.73;;
60502;SDS011;51448;51.660;5.824;2024-03-02T13:40:18;2.95;;;1.15;;
60502;SDS011;51448;51.660;5.824;2024-03-02T13:42:47;2.17;;;0.60;;
60502;SDS011;51448;51.660;5.824;2024-03-02T13:45:15;3.47;;;0.95;;
60502;SDS011;51448;51.660;5.824;2024-03-02T13:47:44;2.75;;;0.80;;
60502;SDS011;51448;51.660;5.824;2024-03-02T13:50:12;3.63;;;0.93;;
60502;SDS011;51448;51.660;5.824;2024-03-02T13:52:39;5.65;;;1.15;;
60502;SDS011;51448;51.660;5.824;2024-03-02T13:55:07;2.00;;;0.70;;
60502;SDS011;51448;51.660;5.824;2024-03-02T13:57:35;2.35;;;1.50;;
60502;SDS011;51448;51.660;5.824;2024-03-02T14:00:03;1.75;;;0.60;;
60502;SDS011;51448;51.660;5.824;2024-03-02T14:02:38;5.72;;;0.75;;
60502;SDS011;51448;51.660;5.824;2024-03-02T14:05:06;2.50;;;0.68;;
60502;SDS011;51448;51.660;5.824;2024-03-02T14:07:38;3.15;;;1.30;;
60502;SDS011;51448;51.660;5.824;2024-03-02T14:10:06;3.72;;;0.70;;
60502;SDS011;51448;51.660;5.824;2024-03-02T14:12:33;3.50;;;1.00;;
60502;SDS011;51448;51.660;5.824;2024-03-02T14:15:01;2.65;;;0.80;;
60502;SDS011;51448;51.660;5.824;2024-03-02T14:17:31;1.58;;;0.85;;
60502;SDS011;51448;51.660;5.824;2024-03-02T14:19:59;3.55;;;1.35;;
60502;SDS011;51448;51.660;5.824;2024-03-02T14:22:27;3.58;;;0.95;;
60502;SDS011;51448;51.660;5.824;2024-03-02T14:24:54;5.32;;;1.27;;
60502;SDS011;51448;51.660;5.824;2024-03-02T14:27:23;6.90;;;0.93;;
60502;SDS011;51448;51.660;5.824;2024-03-02T14:30:10;3.72;;;1.50;;
60502;SDS011;51448;51.660;5.824;2024-03-02T14:32:39;4.97;;;1.02;;
60502;SDS011;51448;51.660;5.824;2024-03-02T14:35:06;3.42;;;0.90;;
60502;SDS011;51448;51.660;5.824;2024-03-02T14:37:37;4.00;;;1.05;;
60502;SDS011;51448;51.660;5.824;2024-03-02T14:40:05;2.35;;;0.82;;
60502;SDS011;51448;51.660;5.824;2024-03-02T14:42:35;2.60;;;0.75;;
60502;SDS011;51448;51.660;5.824;2024-03-02T14:45:06;3.35;;;0.98;;
60502;SDS011;51448;51.660;5.824;2024-03-02T14:47:34;1.83;;;0.98;;
60502;SDS011;51448;51.660;5.824;2024-03-02T14:50:02;2.20;;;0.90;;
60502;SDS011;51448;51.660;5.824;2024-03-02T14:52:33;3.40;;;1.30;;
60502;SDS011;51448;51.660;5.824;2024-03-02T14:55:01;4.13;;;1.67;;
60502;SDS011;51448;51.660;5.824;2024-03-02T14:57:31;1.40;;;0.63;;